createdAt,value
2022-08-07T00:00:31.469Z,3.00
2022-08-07T00:02:58.068Z,3.28
2022-08-07T00:05:25.422Z,3.00
2022-08-07T00:07:58.510Z,2.83
2022-08-07T00:10:31.061Z,3.35
2022-08-07T00:13:09.626Z,3.00
2022-08-07T00:15:46.719Z,3.03
2022-08-07T00:18:24.556Z,2.92
2022-08-07T00:20:53.576Z,2.83
2022-08-07T00:23:21.359Z,3.30
2022-08-07T00:25:59.076Z,2.85
2022-08-07T00:28:34.088Z,2.67
2022-08-07T00:31:12.404Z,2.72
2022-08-07T00:33:40.735Z,3.10
2022-08-07T00:36:08.653Z,2.78
2022-08-07T00:38:37.070Z,2.90
2022-08-07T00:41:09.891Z,2.95
2022-08-07T00:44:00.854Z,2.90
2022-08-07T00:46:28.366Z,2.90
2022-08-07T00:48:54.994Z,3.00
2022-08-07T00:51:21.844Z,3.13
2022-08-07T00:53:50.697Z,3.25
2022-08-07T00:56:22.839Z,3.00
2022-08-07T00:58:50.003Z,3.22
2022-08-07T01:01:18.195Z,3.10
2022-08-07T01:03:55.449Z,3.85
2022-08-07T01:06:25.943Z,3.40
2022-08-07T01:08:53.868Z,3.50
2022-08-07T01:12:09.583Z,3.80
2022-08-07T01:14:09.719Z,3.28
2022-08-07T01:16:37.080Z,3.00
2022-08-07T01:19:10.865Z,3.10
2022-08-07T01:21:47.785Z,3.35
2022-08-07T01:24:18.736Z,3.65
2022-08-07T01:26:52.033Z,3.40
2022-08-07T01:29:20.012Z,3.22
2022-08-07T01:31:48.267Z,3.00
2022-08-07T01:34:15.680Z,3.20
2022-08-07T01:36:44.150Z,3.35
2022-08-07T01:39:11.419Z,3.80
2022-08-07T01:41:40.798Z,3.10
2022-08-07T01:44:26.062Z,3.25
2022-08-07T01:46:53.270Z,3.47
2022-08-07T01:49:22.200Z,2.88
2022-08-07T01:52:03.653Z,3.00
2022-08-07T01:54:36.960Z,2.90
2022-08-07T01:57:34.127Z,3.25
2022-08-07T02:00:18.057Z,3.20
2022-08-07T02:03:12.059Z,3.30
2022-08-07T02:05:58.542Z,2.95
2022-08-07T02:08:27.727Z,3.08
2022-08-07T02:10:58.090Z,3.20
2022-08-07T02:13:47.024Z,3.17
2022-08-07T02:16:14.828Z,3.20
2022-08-07T02:18:46.929Z,3.25
2022-08-07T02:21:16.101Z,3.00
2022-08-07T02:23:43.933Z,2.92
2022-08-07T02:26:32.412Z,3.22
2022-08-07T02:29:00.249Z,3.28
2022-08-07T02:31:28.826Z,3.30
2022-08-07T02:34:11.261Z,3.05
2022-08-07T02:36:45.116Z,3.40
2022-08-07T02:39:17.249Z,3.00
2022-08-07T02:42:02.086Z,3.05
2022-08-07T02:44:34.624Z,2.80
2022-08-07T02:47:02.796Z,3.45
2022-08-07T02:49:58.019Z,3.03
2022-08-07T02:52:30.922Z,2.67
2022-08-07T02:55:01.186Z,3.30
2022-08-07T02:57:34.226Z,3.00
2022-08-07T03:00:05.210Z,3.20
2022-08-07T03:02:41.979Z,3.13
2022-08-07T03:05:23.104Z,3.03
2022-08-07T03:08:07.531Z,3.13
2022-08-07T03:10:46.364Z,2.55
2022-08-07T03:13:15.666Z,3.03
2022-08-07T03:15:56.131Z,3.38
2022-08-07T03:18:34.199Z,3.10
2022-08-07T03:21:04.407Z,3.40
2022-08-07T03:23:33.712Z,3.00
2022-08-07T03:26:23.430Z,3.00
2022-08-07T03:28:50.346Z,3.03
2022-08-07T03:31:18.559Z,3.47
2022-08-07T03:33:48.574Z,2.90
2022-08-07T03:36:15.483Z,3.03
2022-08-07T03:38:43.133Z,3.35
2022-08-07T03:41:12.371Z,3.15
2022-08-07T03:43:44.096Z,2.92
2022-08-07T03:46:25.426Z,3.20
2022-08-07T03:49:03.037Z,3.35
2022-08-07T03:51:31.018Z,2.72
2022-08-07T03:54:36.255Z,3.17
2022-08-07T03:57:04.018Z,3.10
2022-08-07T03:59:34.288Z,2.90
2022-08-07T04:02:01.238Z,2.88
2022-08-07T04:04:28.201Z,3.03
2022-08-07T04:07:00.087Z,2.88
2022-08-07T04:09:44.786Z,3.08
2022-08-07T04:12:26.826Z,3.00
2022-08-07T04:14:55.027Z,2.90
2022-08-07T04:17:22.877Z,2.97
2022-08-07T04:20:11.592Z,2.70
2022-08-07T04:22:40.366Z,2.85
2022-08-07T04:25:21.524Z,2.60
2022-08-07T04:28:00.329Z,2.92
2022-08-07T04:30:44.025Z,3.00
2022-08-07T04:33:15.623Z,2.90
2022-08-07T04:35:50.603Z,2.63
2022-08-07T04:38:18.124Z,2.75
2022-08-07T04:40:52.930Z,2.70
2022-08-07T04:44:11.301Z,3.13
2022-08-07T04:46:26.044Z,2.72
2022-08-07T04:49:07.549Z,2.60
2022-08-07T04:52:00.589Z,3.10
2022-08-07T04:54:34.850Z,2.88
2022-08-07T04:58:10.969Z,2.80
2022-08-07T05:00:12.834Z,2.80
2022-08-07T05:03:02.970Z,2.60
2022-08-07T05:05:53.129Z,2.60
2022-08-07T05:08:59.023Z,3.10
2022-08-07T05:11:57.289Z,2.65
2022-08-07T05:14:55.526Z,2.70
2022-08-07T05:17:51.671Z,2.97
2022-08-07T05:20:09.593Z,3.15
2022-08-07T05:22:38.289Z,2.92
2022-08-07T05:25:08.617Z,2.80
2022-08-07T05:28:02.816Z,3.00
2022-08-07T05:30:32.367Z,2.92
2022-08-07T05:33:02.607Z,2.35
2022-08-07T05:35:33.518Z,2.75
2022-08-07T05:38:09.860Z,3.00
2022-08-07T05:40:37.927Z,3.08
2022-08-07T05:43:18.574Z,2.85
2022-08-07T05:45:48.113Z,2.85
2022-08-07T05:48:15.590Z,2.47
2022-08-07T05:50:43.514Z,2.70
2022-08-07T05:54:13.221Z,2.70
2022-08-07T05:56:03.004Z,2.30
2022-08-07T05:58:36.733Z,2.92
2022-08-07T06:01:05.944Z,2.47
2022-08-07T06:03:56.491Z,2.50
2022-08-07T06:06:23.363Z,2.90
2022-08-07T06:08:56.986Z,2.90
2022-08-07T06:11:25.290Z,2.90
2022-08-07T06:14:12.148Z,2.63
2022-08-07T06:16:40.102Z,2.63
2022-08-07T06:19:07.152Z,2.50
2022-08-07T06:22:14.842Z,2.53
2022-08-07T06:24:53.033Z,2.80
2022-08-07T06:27:07.859Z,2.80
2022-08-07T06:29:34.934Z,2.70
2022-08-07T06:32:05.725Z,2.60
2022-08-07T06:34:32.331Z,2.58
2022-08-07T06:36:59.858Z,2.50
2022-08-07T06:40:12.875Z,2.35
2022-08-07T06:42:35.014Z,2.60
2022-08-07T06:45:02.922Z,2.80
2022-08-07T06:47:48.315Z,3.22
2022-08-07T06:50:16.319Z,20.25
2022-08-07T06:52:52.968Z,17.67
2022-08-07T06:55:34.157Z,8.60
2022-08-07T06:58:11.407Z,5.93
2022-08-07T07:00:42.187Z,7.15
2022-08-07T07:03:13.684Z,5.97
2022-08-07T07:06:04.394Z,6.00
2022-08-07T07:08:29.792Z,5.88
2022-08-07T07:10:58.980Z,5.70
2022-08-07T07:13:40.646Z,5.13
2022-08-07T07:16:19.810Z,5.25
2022-08-07T07:18:52.153Z,4.78
2022-08-07T07:21:40.266Z,4.83
2022-08-07T07:24:17.367Z,6.13
2022-08-07T07:26:51.972Z,5.70
2022-08-07T07:29:40.354Z,5.55
2022-08-07T07:32:10.473Z,4.57
2022-08-07T07:34:39.545Z,5.22
2022-08-07T07:37:21.564Z,5.22
2022-08-07T07:39:58.235Z,4.80
2022-08-07T07:42:32.905Z,4.50
2022-08-07T07:45:04.430Z,4.80
2022-08-07T07:47:51.891Z,4.60
2022-08-07T07:50:36.178Z,4.85
2022-08-07T07:53:13.640Z,4.35
2022-08-07T07:55:54.887Z,4.40
2022-08-07T07:58:30.168Z,4.10
2022-08-07T08:00:58.331Z,4.05
2022-08-07T08:04:10.549Z,4.70
2022-08-07T08:06:13.086Z,4.18
2022-08-07T08:08:42.145Z,4.05
2022-08-07T08:11:16.477Z,4.28
2022-08-07T08:13:53.971Z,4.55
2022-08-07T08:16:26.563Z,4.25
2022-08-07T08:18:57.021Z,3.92
2022-08-07T08:21:55.815Z,4.15
2022-08-07T08:25:04.735Z,4.10
2022-08-07T08:27:40.936Z,4.05
2022-08-07T08:30:23.344Z,4.03
2022-08-07T08:32:53.873Z,4.05
2022-08-07T08:35:28.883Z,4.00
2022-08-07T08:38:07.070Z,4.25
2022-08-07T08:40:46.889Z,3.95
2022-08-07T08:43:20.819Z,4.65
2022-08-07T08:46:17.360Z,3.80
2022-08-07T08:48:58.261Z,3.72
2022-08-07T08:52:00.883Z,3.85
2022-08-07T08:54:38.770Z,4.00
2022-08-07T08:57:09.293Z,3.95
2022-08-07T08:59:48.263Z,3.78
2022-08-07T09:02:38.893Z,3.85
2022-08-07T09:05:14.712Z,3.72
2022-08-07T09:07:58.164Z,3.42
2022-08-07T09:10:54.542Z,3.85
2022-08-07T09:13:59.834Z,3.72
2022-08-07T09:16:45.711Z,3.75
2022-08-07T09:19:44.774Z,3.70
2022-08-07T09:24:30.715Z,3.20
2022-08-07T09:25:54.330Z,3.67
2022-08-07T09:30:01.264Z,3.50
2022-08-07T09:31:23.704Z,3.42
2022-08-07T09:34:08.601Z,3.78
2022-08-07T09:36:57.574Z,3.67
2022-08-07T09:39:55.523Z,3.00
2022-08-07T09:42:38.802Z,3.45
2022-08-07T09:47:55.666Z,3.40
2022-08-07T09:48:12.221Z,3.20
2022-08-07T09:51:03.315Z,3.20
2022-08-07T09:53:55.096Z,3.25
2022-08-07T09:56:37.697Z,3.23
2022-08-07T09:59:37.045Z,3.50
2022-08-07T10:02:16.212Z,2.72
2022-08-07T10:04:47.724Z,2.97
2022-08-07T10:07:57.074Z,3.40
2022-08-07T10:10:30.744Z,3.40
2022-08-07T10:13:55.453Z,3.13
2022-08-07T10:16:16.489Z,3.53
2022-08-07T10:19:11.691Z,3.28
2022-08-07T10:22:14.454Z,5.72
2022-08-07T10:24:46.196Z,6.03
2022-08-07T10:27:47.146Z,5.88
2022-08-07T10:30:27.749Z,5.57
2022-08-07T10:33:14.910Z,4.93
2022-08-07T10:35:56.877Z,5.15
2022-08-07T10:38:41.192Z,4.43
2022-08-07T10:41:47.273Z,4.28
2022-08-07T10:44:38.314Z,4.20
2022-08-07T10:47:15.879Z,3.95
2022-08-07T10:49:51.833Z,4.35
2022-08-07T10:52:21.459Z,4.10
2022-08-07T10:55:20.934Z,4.35
2022-08-07T10:58:40.360Z,4.13
2022-08-07T11:01:35.268Z,3.75
2022-08-07T11:04:32.262Z,3.70
2022-08-07T11:07:14.834Z,3.83
2022-08-07T11:10:09.923Z,3.60
2022-08-07T11:12:37.924Z,3.83
2022-08-07T11:15:14.458Z,3.25
2022-08-07T11:17:56.600Z,3.38
2022-08-07T11:20:29.965Z,3.58
2022-08-07T11:23:12.528Z,3.30
2022-08-07T11:26:49.952Z,3.22
2022-08-07T11:29:41.993Z,3.20
2022-08-07T11:34:58.682Z,3.28
2022-08-07T11:37:58.116Z,2.88
2022-08-07T11:40:39.573Z,3.08
2022-08-07T11:43:54.958Z,2.90
2022-08-07T11:46:40.451Z,2.97
2022-08-07T11:50:30.666Z,3.35
2022-08-07T11:53:02.590Z,2.40
2022-08-07T11:56:27.286Z,2.80
2022-08-07T12:00:10.171Z,3.30
2022-08-07T12:02:33.805Z,2.92
2022-08-07T12:05:28.498Z,2.85
2022-08-07T12:08:25.667Z,3.00
2022-08-07T12:11:20.402Z,2.67
2022-08-07T12:13:54.272Z,2.90
2022-08-07T12:16:36.787Z,2.72
2022-08-07T12:19:21.432Z,2.72
2022-08-07T12:22:38.871Z,2.67
2022-08-07T12:26:21.338Z,2.55
2022-08-07T12:28:16.592Z,2.50
2022-08-07T12:31:05.984Z,2.60
2022-08-07T12:34:01.068Z,2.72
2022-08-07T12:36:33.199Z,2.58
2022-08-07T12:39:03.502Z,2.42
2022-08-07T12:41:52.510Z,2.65
2022-08-07T12:44:19.865Z,1.98
2022-08-07T12:47:07.035Z,1.90
2022-08-07T12:49:48.421Z,2.20
2022-08-07T12:52:36.785Z,2.33
2022-08-07T12:55:17.718Z,2.10
2022-08-07T12:58:01.163Z,2.00
2022-08-07T13:01:13.482Z,2.10
2022-08-07T13:03:59.224Z,2.25
2022-08-07T13:07:01.080Z,2.15
2022-08-07T13:10:19.471Z,2.03
2022-08-07T13:13:07.512Z,1.75
2022-08-07T13:15:42.750Z,2.00
2022-08-07T13:18:09.375Z,2.30
2022-08-07T13:20:46.547Z,1.70
2022-08-07T13:24:02.118Z,1.80
2022-08-07T13:26:15.846Z,2.10
2022-08-07T13:28:59.504Z,1.75
2022-08-07T13:31:32.112Z,1.88
2022-08-07T13:34:35.472Z,1.75
2022-08-07T13:37:58.667Z,1.90
2022-08-07T13:40:34.911Z,1.58
2022-08-07T13:43:13.553Z,2.00
2022-08-07T13:46:12.376Z,1.73
2022-08-07T13:48:34.497Z,1.92
2022-08-07T13:51:27.398Z,2.22
2022-08-07T13:54:03.083Z,1.77
2022-08-07T13:56:35.755Z,1.95
2022-08-07T13:59:12.821Z,2.30
2022-08-07T14:02:04.512Z,2.03
2022-08-07T14:04:35.655Z,2.08
2022-08-07T14:07:09.745Z,2.10
2022-08-07T14:10:01.950Z,2.20
2022-08-07T14:12:36.025Z,2.28
2022-08-07T14:15:10.463Z,2.22
2022-08-07T14:18:15.594Z,2.22
2022-08-07T14:20:40.840Z,2.13
2022-08-07T14:23:59.216Z,2.13
2022-08-07T14:26:28.399Z,2.08
2022-08-07T14:29:06.086Z,1.90
2022-08-07T14:31:56.218Z,2.20
2022-08-07T14:34:29.689Z,2.30
2022-08-07T14:37:03.281Z,2.10
2022-08-07T14:40:17.752Z,1.92
2022-08-07T14:42:31.376Z,2.38
2022-08-07T14:45:21.898Z,2.40
2022-08-07T14:47:49.522Z,2.58
2022-08-07T14:50:23.462Z,2.10
2022-08-07T14:52:51.797Z,2.17
2022-08-07T14:55:20.093Z,2.30
2022-08-07T14:57:58.070Z,2.15
2022-08-07T15:00:30.527Z,2.28
2022-08-07T15:02:59.954Z,2.40
2022-08-07T15:05:30.383Z,2.00
2022-08-07T15:08:00.029Z,2.00
2022-08-07T15:10:30.084Z,2.05
2022-08-07T15:13:01.662Z,2.60
2022-08-07T15:15:42.113Z,2.65
2022-08-07T15:18:33.867Z,2.50
2022-08-07T15:21:08.293Z,2.13
2022-08-07T15:25:15.196Z,2.00
2022-08-07T15:26:51.705Z,2.70
2022-08-07T15:30:09.322Z,2.03
2022-08-07T15:34:58.231Z,2.65
2022-08-07T15:37:29.704Z,2.22
2022-08-07T15:40:34.466Z,2.15
2022-08-07T15:43:53.619Z,2.28
2022-08-07T15:46:38.400Z,2.15
2022-08-07T15:49:13.110Z,2.30
2022-08-07T15:54:26.527Z,2.50
2022-08-07T15:56:57.762Z,2.33
2022-08-07T15:59:39.543Z,2.63
2022-08-07T16:02:15.283Z,2.35
2022-08-07T16:04:43.982Z,2.65
2022-08-07T16:08:29.153Z,2.80
2022-08-07T16:10:14.839Z,2.75
2022-08-07T16:13:04.654Z,2.70
2022-08-07T16:16:48.167Z,2.40
2022-08-07T16:19:41.820Z,3.00
2022-08-07T16:22:54.641Z,2.55
2022-08-07T16:26:01.119Z,2.65
2022-08-07T16:29:18.800Z,2.90
2022-08-07T16:31:51.546Z,3.25
2022-08-07T16:34:48.217Z,3.22
2022-08-07T16:38:07.414Z,3.28
2022-08-07T16:40:56.805Z,3.10
2022-08-07T16:44:04.312Z,3.47
2022-08-07T16:47:14.417Z,3.40
2022-08-07T16:50:28.789Z,3.67
2022-08-07T16:53:20.781Z,3.83
2022-08-07T16:55:55.822Z,3.85
2022-08-07T17:01:34.926Z,3.83
2022-08-07T17:04:15.207Z,4.10
2022-08-07T17:07:03.447Z,3.83
2022-08-07T17:10:06.884Z,4.40
2022-08-07T17:12:39.869Z,4.80
2022-08-07T17:15:44.573Z,3.75
2022-08-07T17:18:41.789Z,4.07
2022-08-07T17:21:23.073Z,3.95
2022-08-07T17:24:01.882Z,4.40
2022-08-07T17:26:58.168Z,4.53
2022-08-07T17:30:14.011Z,4.28
2022-08-07T17:33:04.624Z,4.07
2022-08-07T17:36:01.044Z,3.92
2022-08-07T17:38:34.224Z,4.30
2022-08-07T17:42:01.943Z,4.43
2022-08-07T17:44:33.556Z,3.95
2022-08-07T17:47:16.877Z,4.22
2022-08-07T17:49:59.967Z,4.10
2022-08-07T17:52:50.894Z,4.15
2022-08-07T17:56:00.382Z,3.85
2022-08-07T17:58:30.028Z,3.90
2022-08-07T18:00:59.658Z,3.95
2022-08-07T18:04:04.141Z,4.03
2022-08-07T18:06:38.356Z,4.45
2022-08-07T18:09:06.596Z,3.92
2022-08-07T18:12:08.021Z,3.58
2022-08-07T18:14:46.167Z,3.80
2022-08-07T18:18:44.715Z,3.92
2022-08-07T18:21:09.769Z,3.25
2022-08-07T18:23:43.797Z,3.40
2022-08-07T18:26:16.230Z,3.80
2022-08-07T18:29:04.466Z,3.85
2022-08-07T18:32:16.109Z,4.05
2022-08-07T18:35:21.926Z,3.97
2022-08-07T18:38:56.752Z,4.20
2022-08-07T18:41:45.194Z,3.95
2022-08-07T18:44:18.495Z,4.40
2022-08-07T18:46:58.220Z,3.67
2022-08-07T18:50:32.460Z,3.97
2022-08-07T18:53:02.965Z,3.60
2022-08-07T18:55:56.058Z,3.42
2022-08-07T18:59:09.201Z,4.15
2022-08-07T19:02:18.994Z,3.78
2022-08-07T19:05:09.947Z,3.50
2022-08-07T19:07:58.881Z,4.20
2022-08-07T19:10:31.431Z,3.45
2022-08-07T19:13:51.105Z,3.40
2022-08-07T19:17:05.011Z,3.88
2022-08-07T19:19:53.226Z,3.30
2022-08-07T19:22:30.650Z,3.42
2022-08-07T19:24:58.617Z,3.67
2022-08-07T19:28:58.136Z,3.47
2022-08-07T19:31:00.066Z,3.60
2022-08-07T19:33:12.768Z,3.58
2022-08-07T19:35:40.425Z,3.40
2022-08-07T19:38:16.082Z,3.38
2022-08-07T19:40:50.004Z,3.63
2022-08-07T19:43:21.670Z,3.60
2022-08-07T19:46:10.496Z,3.83
2022-08-07T19:48:43.642Z,3.83
2022-08-07T19:51:19.388Z,3.47
2022-08-07T19:54:31.353Z,3.78
2022-08-07T19:57:51.156Z,3.50
2022-08-07T19:59:40.635Z,3.47
2022-08-07T20:02:15.483Z,3.60
2022-08-07T20:04:49.226Z,3.92
2022-08-07T20:07:23.649Z,3.60
2022-08-07T20:10:35.891Z,3.42
2022-08-07T20:12:51.603Z,3.47
2022-08-07T20:15:22.296Z,3.80
2022-08-07T20:18:01.498Z,3.35
2022-08-07T20:20:31.029Z,3.80
2022-08-07T20:23:01.590Z,3.63
2022-08-07T20:25:53.255Z,3.40
2022-08-07T20:28:20.733Z,3.30
2022-08-07T20:30:56.670Z,3.40
2022-08-07T20:33:36.924Z,4.15
2022-08-07T20:36:07.126Z,3.28
2022-08-07T20:38:34.331Z,3.47
2022-08-07T20:41:03.810Z,3.35
2022-08-07T20:43:33.092Z,3.50
2022-08-07T20:46:28.619Z,3.45
2022-08-07T20:49:02.427Z,3.40
2022-08-07T20:51:40.709Z,3.75
2022-08-07T20:54:29.551Z,3.20
2022-08-07T20:57:02.670Z,3.20
2022-08-07T21:00:04.967Z,2.97
2022-08-07T21:02:40.396Z,3.08
2022-08-07T21:05:16.356Z,2.95
2022-08-07T21:07:49.768Z,3.15
2022-08-07T21:10:31.506Z,3.08
2022-08-07T21:13:00.479Z,3.20
2022-08-07T21:15:58.290Z,3.10
2022-08-07T21:18:27.766Z,3.15
2022-08-07T21:20:56.833Z,2.78
2022-08-07T21:23:42.640Z,2.67
2022-08-07T21:26:49.159Z,2.83
2022-08-07T21:29:30.838Z,2.75
2022-08-07T21:32:43.848Z,2.63
2022-08-07T21:35:02.726Z,2.65
2022-08-07T21:38:08.218Z,2.33
2022-08-07T21:40:46.272Z,2.40
2022-08-07T21:43:55.788Z,2.67
2022-08-07T21:46:33.725Z,2.20
2022-08-07T21:49:14.553Z,2.28
2022-08-07T21:52:03.178Z,2.53
2022-08-07T21:54:48.505Z,2.40
2022-08-07T21:57:31.293Z,2.28
2022-08-07T22:00:22.925Z,2.33
2022-08-07T22:02:54.012Z,2.72
2022-08-07T22:05:44.451Z,2.22
2022-08-07T22:08:14.606Z,2.50
2022-08-07T22:10:49.765Z,2.25
2022-08-07T22:13:17.452Z,2.70
2022-08-07T22:16:42.301Z,2.05
2022-08-07T22:19:01.096Z,2.30
2022-08-07T22:22:04.732Z,2.03
2022-08-07T22:24:34.774Z,2.47
2022-08-07T22:28:07.476Z,1.83
2022-08-07T22:30:16.831Z,2.15
2022-08-07T22:33:09.102Z,1.95
2022-08-07T22:35:48.171Z,2.17
2022-08-07T22:38:31.735Z,2.25
2022-08-07T22:41:20.054Z,2.13
2022-08-07T22:43:51.562Z,1.92
2022-08-07T22:47:02.483Z,2.20
2022-08-07T22:49:39.635Z,1.98
2022-08-07T22:52:39.896Z,2.20
2022-08-07T22:55:14.824Z,2.08
2022-08-07T22:57:53.893Z,1.58
2022-08-07T23:01:06.284Z,2.00
2022-08-07T23:03:58.802Z,1.88
2022-08-07T23:10:05.005Z,1.95
2022-08-07T23:12:51.659Z,1.70
2022-08-07T23:16:06.185Z,2.05
2022-08-07T23:21:16.302Z,1.90
2022-08-07T23:24:16.700Z,1.95
2022-08-07T23:26:55.015Z,1.70
2022-08-07T23:29:43.720Z,1.85
2022-08-07T23:34:36.887Z,2.05
2022-08-07T23:36:08.622Z,2.00
2022-08-07T23:38:59.129Z,1.60
2022-08-07T23:41:47.482Z,1.70
2022-08-07T23:44:46.154Z,1.73
2022-08-07T23:47:42.478Z,2.00
2022-08-07T23:50:20.658Z,1.70
2022-08-07T23:53:15.494Z,1.30
2022-08-07T23:56:14.777Z,1.80
